Time;durP1;ratioP1;P1;durP2;ratioP2;P2;SDS_P1;SDS_P2;PMS_P1;PMS_P2;Temp;Humidity;BMP_temperature;BMP_pressure;BME280_temperature;BME280_humidity;BME280_pressure;Samples;Min_cycle;Max_cycle;Signal;HPM_P1;HPM_P2
2022/03/05 00:00:16;;;;;;;21.73;11.70;;;-0.80;99.90;;;;;;6261468;22;20521;-86
2022/03/05 00:02:42;;;;;;;22.58;11.85;;;-0.90;99.90;;;;;;6183452;22;20023;-86
2022/03/05 00:05:10;;;;;;;23.23;11.82;;;-0.90;99.90;;;;;;6237578;22;20098;-85
2022/03/05 00:07:35;;;;;;;24.77;11.80;;;-0.90;99.90;;;;;;6187129;22;20519;-86
2022/03/05 00:10:02;;;;;;;20.35;10.77;;;-1.00;99.90;;;;;;6211283;22;20015;-86
2022/03/05 00:12:27;;;;;;;20.00;11.07;;;-0.90;99.90;;;;;;6236003;22;20018;-86
2022/03/05 00:14:53;;;;;;;21.67;11.70;;;-0.80;99.90;;;;;;6210794;22;20021;-86
2022/03/05 00:17:19;;;;;;;19.38;11.73;;;-1.00;99.90;;;;;;6211143;22;20050;-86
2022/03/05 00:19:45;;;;;;;20.50;10.90;;;-1.00;99.90;;;;;;6236383;22;20023;-86
2022/03/05 00:22:11;;;;;;;24.08;11.18;;;-1.00;99.90;;;;;;6207453;22;20048;-86
2022/03/05 00:24:36;;;;;;;20.55;10.75;;;-1.00;99.90;;;;;;6181359;22;20387;-88
2022/03/05 00:27:04;;;;;;;20.42;11.02;;;-1.00;99.90;;;;;;6237928;22;20019;-88
2022/03/05 00:29:30;;;;;;;20.85;11.55;;;-1.00;99.90;;;;;;6211413;22;20015;-88
2022/03/05 00:31:59;;;;;;;18.58;10.60;;;-1.00;99.90;;;;;;6213258;22;20019;-89
2022/03/05 00:34:25;;;;;;;21.02;11.43;;;-1.10;99.90;;;;;;6188823;22;20011;-89
2022/03/05 00:36:50;;;;;;;21.60;10.73;;;-1.10;99.90;;;;;;6213614;22;20099;-89
2022/03/05 00:39:16;;;;;;;21.23;11.23;;;-1.10;99.90;;;;;;6239963;22;20026;-89
2022/03/05 00:41:42;;;;;;;20.63;10.50;;;-1.10;99.90;;;;;;6238841;22;20126;-89
2022/03/05 00:44:11;;;;;;;20.80;10.55;;;-1.10;99.90;;;;;;6236196;22;20057;-90
2022/03/05 00:46:37;;;;;;;20.67;9.95;;;-1.20;99.90;;;;;;6213059;22;20072;-89
2022/03/05 00:49:03;;;;;;;21.48;10.48;;;-1.10;99.90;;;;;;6214343;22;20527;-89
2022/03/05 00:51:29;;;;;;;22.63;10.27;;;-1.10;99.90;;;;;;6235792;22;20720;-89
2022/03/05 00:53:55;;;;;;;19.60;10.13;;;-1.10;99.90;;;;;;6211698;22;20056;-89
2022/03/05 00:56:21;;;;;;;19.60;9.70;;;-1.10;99.90;;;;;;6209924;22;20022;-89
2022/03/05 00:58:47;;;;;;;17.85;9.75;;;-1.20;99.90;;;;;;6213201;22;20021;-89
2022/03/05 01:01:13;;;;;;;19.13;9.35;;;-1.20;99.90;;;;;;6211360;22;20094;-89
2022/03/05 01:03:39;;;;;;;18.95;8.48;;;-1.20;99.90;;;;;;6214176;22;20053;-89
2022/03/05 01:06:05;;;;;;;18.98;9.98;;;-1.20;99.90;;;;;;6190575;22;20015;-89
2022/03/05 01:08:33;;;;;;;24.05;10.10;;;-1.20;99.90;;;;;;6242377;22;20054;-89
2022/03/05 01:10:59;;;;;;;19.33;8.98;;;-1.20;99.90;;;;;;6210764;22;20046;-89
2022/03/05 01:13:25;;;;;;;15.50;8.60;;;-1.30;99.90;;;;;;6209274;22;20352;-89
2022/03/05 01:15:51;;;;;;;20.63;9.43;;;-1.20;99.90;;;;;;6210154;22;20012;-89
2022/03/05 01:18:17;;;;;;;24.23;9.38;;;-1.20;99.90;;;;;;6210969;22;20268;-89
2022/03/05 01:20:43;;;;;;;18.88;8.57;;;-1.20;99.90;;;;;;6237396;22;20341;-88
2022/03/05 01:23:08;;;;;;;19.40;8.77;;;-1.20;99.90;;;;;;6209337;22;20101;-89
2022/03/05 01:25:34;;;;;;;15.63;8.68;;;-1.20;99.90;;;;;;6236222;22;20025;-88
2022/03/05 01:28:00;;;;;;;17.63;9.45;;;-1.20;99.90;;;;;;6187892;22;20019;-90
2022/03/05 01:30:27;;;;;;;16.95;8.50;;;-1.20;99.90;;;;;;6238385;22;20080;-89
2022/03/05 01:32:52;;;;;;;19.17;8.77;;;-1.20;99.90;;;;;;6237388;22;20224;-89
2022/03/05 01:35:18;;;;;;;19.73;8.95;;;-1.30;99.90;;;;;;6239135;22;20007;-89
2022/03/05 01:37:45;;;;;;;18.73;8.27;;;-1.30;99.90;;;;;;6266508;22;20046;-89
2022/03/05 01:40:11;;;;;;;20.08;8.65;;;-1.30;99.90;;;;;;6214484;22;20022;-89
2022/03/05 01:42:37;;;;;;;17.10;8.90;;;-1.30;99.90;;;;;;6188470;22;20075;-89
2022/03/05 01:45:04;;;;;;;21.30;9.70;;;-1.20;99.90;;;;;;6188235;22;20460;-89
2022/03/05 01:47:29;;;;;;;18.10;8.68;;;-1.30;99.90;;;;;;6214419;22;20019;-89
2022/03/05 01:49:55;;;;;;;15.70;8.48;;;-1.30;99.90;;;;;;6216206;22;20372;-89
2022/03/05 01:52:21;;;;;;;20.40;8.65;;;-1.30;99.90;;;;;;6216363;22;20011;-89
2022/03/05 01:54:47;;;;;;;17.92;8.65;;;-1.30;99.90;;;;;;6215924;22;20011;-89
2022/03/05 01:57:13;;;;;;;20.42;8.30;;;-1.40;99.90;;;;;;6189888;22;20011;-89
2022/03/05 01:59:39;;;;;;;19.17;8.68;;;-1.40;99.90;;;;;;6213218;22;20340;-89
2022/03/05 02:02:05;;;;;;;15.23;7.78;;;-1.40;99.90;;;;;;6216920;22;20657;-89
2022/03/05 02:04:31;;;;;;;16.60;7.43;;;-1.40;99.90;;;;;;6186062;22;20051;-88
2022/03/05 02:06:57;;;;;;;15.15;7.65;;;-1.30;99.90;;;;;;6240476;22;20021;-89
2022/03/05 02:09:22;;;;;;;17.48;8.15;;;-1.40;99.90;;;;;;6237990;22;20416;-89
2022/03/05 02:11:48;;;;;;;17.95;8.27;;;-1.40;99.90;;;;;;6187421;22;20011;-90
2022/03/05 02:14:18;;;;;;;17.13;7.78;;;-1.30;99.90;;;;;;6239804;22;20523;-88
2022/03/05 02:16:45;;;;;;;14.48;7.07;;;-1.30;99.90;;;;;;6237846;22;20007;-89
2022/03/05 02:19:11;;;;;;;13.88;7.35;;;-1.30;99.90;;;;;;6237895;22;20023;-89
2022/03/05 02:21:37;;;;;;;14.65;7.60;;;-1.40;99.90;;;;;;6185699;22;20026;-89
2022/03/05 02:24:04;;;;;;;18.15;7.72;;;-1.40;99.90;;;;;;6236541;22;20092;-89
2022/03/05 02:26:29;;;;;;;14.15;7.53;;;-1.40;99.90;;;;;;6238238;22;20015;-89
2022/03/05 02:28:55;;;;;;;16.40;7.45;;;-1.40;99.90;;;;;;6209872;22;20352;-90
2022/03/05 02:31:22;;;;;;;16.85;8.05;;;-1.40;99.90;;;;;;6207187;22;20452;-89
2022/03/05 02:33:52;;;;;;;15.98;7.22;;;-1.40;99.90;;;;;;6232865;22;20098;-90
2022/03/05 02:36:22;;;;;;;14.50;7.47;;;-1.30;99.90;;;;;;6213025;22;20007;-90
2022/03/05 02:38:52;;;;;;;14.38;7.38;;;-1.40;99.90;;;;;;6239990;22;20391;-89
2022/03/05 02:41:18;;;;;;;15.40;8.10;;;-1.40;99.90;;;;;;6237388;22;20074;-88
2022/03/05 02:43:47;;;;;;;14.85;7.72;;;-1.40;99.90;;;;;;6211095;22;20038;-89
2022/03/05 02:46:13;;;;;;;15.32;7.40;;;-1.30;99.90;;;;;;6213022;22;20021;-90
2022/03/05 02:48:39;;;;;;;17.65;8.07;;;-1.40;99.90;;;;;;6211702;22;20019;-89
2022/03/05 02:51:05;;;;;;;13.10;7.22;;;-1.50;99.90;;;;;;6212095;22;20460;-89
2022/03/05 02:53:31;;;;;;;15.70;7.47;;;-1.40;99.90;;;;;;6212390;22;20054;-89
2022/03/05 02:55:57;;;;;;;16.25;7.65;;;-1.40;99.90;;;;;;6216077;22;20015;-89
2022/03/05 02:58:23;;;;;;;16.52;7.95;;;-1.40;99.90;;;;;;6213392;22;20457;-89
2022/03/05 03:00:50;;;;;;;17.80;7.70;;;-1.40;99.90;;;;;;6185643;22;20065;-89
2022/03/05 03:03:16;;;;;;;16.33;7.80;;;-1.40;99.90;;;;;;6212702;22;20022;-88
2022/03/05 03:05:42;;;;;;;17.92;8.32;;;-1.50;99.90;;;;;;6209804;22;20015;-90
2022/03/05 03:08:07;;;;;;;14.63;7.60;;;-1.50;99.90;;;;;;6211791;22;20019;-89
2022/03/05 03:10:33;;;;;;;16.20;7.82;;;-1.40;99.90;;;;;;6212460;22;20189;-91
2022/03/05 03:13:00;;;;;;;17.58;8.35;;;-1.50;99.90;;;;;;6237567;22;20015;-90
2022/03/05 03:15:26;;;;;;;20.70;8.60;;;-1.50;99.90;;;;;;6236554;22;20455;-89
2022/03/05 03:17:53;;;;;;;17.63;8.93;;;-1.60;99.90;;;;;;6194705;22;20327;-89
2022/03/05 03:20:21;;;;;;;19.30;8.85;;;-1.60;99.90;;;;;;6238032;22;20024;-89
2022/03/05 03:22:47;;;;;;;18.13;9.20;;;-1.60;99.90;;;;;;6240986;22;20332;-89
2022/03/05 03:25:13;;;;;;;16.55;8.40;;;-1.60;99.90;;;;;;6236338;22;20092;-89
2022/03/05 03:27:40;;;;;;;16.52;7.97;;;-1.60;99.90;;;;;;6239190;22;20019;-88
2022/03/05 03:30:08;;;;;;;18.77;9.38;;;-1.60;99.90;;;;;;6220343;22;20051;-89
2022/03/05 03:32:34;;;;;;;20.20;8.65;;;-1.60;99.90;;;;;;6242817;22;20050;-89
2022/03/05 03:35:00;;;;;;;20.67;10.05;;;-1.70;99.90;;;;;;6213196;22;20022;-88
2022/03/05 03:37:29;;;;;;;23.50;9.70;;;-1.60;99.90;;;;;;6188051;22;20015;-89
2022/03/05 03:39:56;;;;;;;22.50;10.93;;;-1.60;99.90;;;;;;6216991;22;20478;-89
2022/03/05 03:42:23;;;;;;;17.77;8.50;;;-1.60;99.90;;;;;;6213107;22;20229;-89
2022/03/05 03:44:48;;;;;;;20.77;10.02;;;-1.60;99.90;;;;;;6213822;22;20213;-89
2022/03/05 03:47:14;;;;;;;25.42;10.35;;;-1.60;99.90;;;;;;6214476;22;20333;-88
2022/03/05 03:49:40;;;;;;;18.90;9.32;;;-1.60;99.90;;;;;;6192670;22;20595;-89
2022/03/05 03:52:06;;;;;;;20.40;9.40;;;-1.60;99.90;;;;;;6215931;22;20046;-90
2022/03/05 03:54:33;;;;;;;20.42;9.73;;;-1.60;99.90;;;;;;6218393;22;20018;-90
2022/03/05 03:56:59;;;;;;;19.38;9.57;;;-1.60;99.90;;;;;;6239608;22;20011;-90
2022/03/05 03:59:25;;;;;;;15.60;8.35;;;-1.60;99.90;;;;;;6216638;22;20027;-90
2022/03/05 04:01:51;;;;;;;18.83;9.55;;;-1.70;99.90;;;;;;6192086;22;20019;-89
2022/03/05 04:04:17;;;;;;;20.05;8.77;;;-1.70;99.90;;;;;;6191219;22;20015;-89
2022/03/05 04:09:29;;;;;;;19.45;10.07;;;-1.70;99.90;;;;;;6245116;22;20046;-90
2022/03/05 04:11:59;;;;;;;19.33;8.88;;;-1.70;99.90;;;;;;6213993;22;20015;-90
2022/03/05 04:14:38;;;;;;;21.33;8.95;;;-1.80;99.90;;;;;;6237391;22;20015;-91
2022/03/05 04:17:10;;;;;;;19.00;9.32;;;-1.70;99.90;;;;;;6214244;22;20015;-90
2022/03/05 04:19:45;;;;;;;22.48;9.80;;;-1.80;99.90;;;;;;6218176;22;20094;-90
2022/03/05 04:22:17;;;;;;;17.65;8.73;;;-1.80;99.90;;;;;;6242341;22;20102;-90
2022/03/05 04:24:43;;;;;;;15.70;8.70;;;-1.80;99.90;;;;;;6238871;22;20019;-90
2022/03/05 04:27:12;;;;;;;18.92;8.93;;;-1.80;99.90;;;;;;6214593;22;20112;-90
2022/03/05 04:29:38;;;;;;;18.10;8.80;;;-1.80;99.90;;;;;;6186153;22;20015;-91
2022/03/05 04:32:04;;;;;;;16.10;8.90;;;-1.80;99.90;;;;;;6212137;22;20011;-88
2022/03/05 04:34:31;;;;;;;16.77;9.48;;;-1.80;99.90;;;;;;6237147;22;20103;-90
2022/03/05 04:36:59;;;;;;;23.30;9.57;;;-1.80;99.90;;;;;;6208848;22;20011;-90
2022/03/05 04:39:25;;;;;;;16.85;8.85;;;-1.80;99.90;;;;;;6214354;22;20057;-90
2022/03/05 04:41:51;;;;;;;17.90;8.30;;;-1.70;99.90;;;;;;6187121;22;20379;-89
2022/03/05 04:44:16;;;;;;;18.48;9.05;;;-1.70;99.90;;;;;;6213206;22;20015;-89
2022/03/05 04:46:42;;;;;;;19.30;8.82;;;-1.70;99.90;;;;;;6235009;22;20229;-89
2022/03/05 04:49:09;;;;;;;15.85;8.82;;;-1.70;99.90;;;;;;6209616;22;20011;-90
2022/03/05 04:51:35;;;;;;;14.05;7.75;;;-1.80;99.90;;;;;;6185820;22;20389;-89
2022/03/05 04:54:01;;;;;;;20.40;9.32;;;-1.70;99.90;;;;;;6184505;22;20090;-90
2022/03/05 04:56:27;;;;;;;19.98;9.10;;;-1.80;99.90;;;;;;6215037;22;20208;-90
2022/03/05 04:58:56;;;;;;;17.27;9.02;;;-1.80;99.90;;;;;;6235439;22;20656;-90
2022/03/05 05:01:22;;;;;;;20.70;8.82;;;-1.70;99.90;;;;;;6235238;22;20015;-90
2022/03/05 05:03:48;;;;;;;17.95;8.55;;;-1.80;99.90;;;;;;6235693;22;20365;-90
2022/03/05 05:06:14;;;;;;;22.23;9.20;;;-1.80;99.90;;;;;;6211865;22;20018;-89
2022/03/05 05:08:40;;;;;;;17.13;8.85;;;-1.80;99.90;;;;;;6211278;22;20088;-90
2022/03/05 05:11:06;;;;;;;21.38;8.70;;;-1.80;99.90;;;;;;6263256;22;20431;-90
2022/03/05 05:13:32;;;;;;;19.42;8.95;;;-1.90;99.90;;;;;;6236510;22;20023;-90
2022/03/05 05:15:58;;;;;;;24.67;9.23;;;-1.80;99.90;;;;;;6185519;22;20114;-90
2022/03/05 05:18:24;;;;;;;17.13;8.27;;;-1.80;99.90;;;;;;6244837;22;20026;-89
2022/03/05 05:20:50;;;;;;;17.38;8.13;;;-1.90;99.90;;;;;;6241606;22;20062;-90
2022/03/05 05:23:16;;;;;;;16.75;8.63;;;-1.90;99.90;;;;;;6195071;22;20156;-90
2022/03/05 05:25:43;;;;;;;16.98;8.90;;;-1.90;99.90;;;;;;6220790;22;20490;-91
2022/03/05 05:28:09;;;;;;;15.80;8.30;;;-1.90;99.90;;;;;;6246553;22;20007;-90
2022/03/05 05:30:35;;;;;;;18.38;7.88;;;-1.90;99.90;;;;;;6246541;22;20046;-90
2022/03/05 05:33:01;;;;;;;17.20;7.70;;;-1.90;99.90;;;;;;6247874;22;20095;-90
2022/03/05 05:35:31;;;;;;;15.48;7.93;;;-1.90;99.90;;;;;;6223432;22;20019;-91
2022/03/05 05:37:57;;;;;;;17.50;8.43;;;-1.90;99.90;;;;;;6222690;22;20349;-90
2022/03/05 05:40:23;;;;;;;21.15;8.80;;;-1.90;99.90;;;;;;6223128;22;20025;-90
2022/03/05 05:42:48;;;;;;;16.13;8.05;;;-1.90;99.90;;;;;;6222733;22;20011;-90
2022/03/05 05:45:14;;;;;;;17.67;9.10;;;-1.80;99.90;;;;;;6196326;22;20038;-91
2022/03/05 05:47:40;;;;;;;18.02;8.70;;;-1.90;99.90;;;;;;6246718;22;20015;-91
2022/03/05 05:50:10;;;;;;;18.45;9.18;;;-2.00;99.90;;;;;;6220643;22;20394;-90
2022/03/05 05:52:36;;;;;;;18.95;8.23;;;-2.00;99.90;;;;;;6245682;22;20013;-91
2022/03/05 05:55:02;;;;;;;15.65;8.00;;;-2.10;99.90;;;;;;6225180;22;20039;-91
2022/03/05 05:57:28;;;;;;;16.38;8.45;;;-2.00;99.90;;;;;;6246854;22;20346;-91
2022/03/05 05:59:54;;;;;;;15.77;8.20;;;-2.10;99.90;;;;;;6197199;22;20019;-92
2022/03/05 06:02:21;;;;;;;15.63;7.60;;;-2.00;99.90;;;;;;6219797;22;20537;-90
2022/03/05 06:04:47;;;;;;;20.00;8.57;;;-2.10;99.90;;;;;;6243715;22;20047;-90
2022/03/05 06:07:13;;;;;;;16.20;8.57;;;-2.10;99.90;;;;;;6191492;22;20023;-91
2022/03/05 06:09:39;;;;;;;17.17;8.85;;;-2.20;99.90;;;;;;6193083;22;20026;-90
2022/03/05 06:12:05;;;;;;;18.27;9.45;;;-2.20;99.90;;;;;;6196034;22;20502;-91
2022/03/05 06:14:31;;;;;;;19.30;9.35;;;-2.20;99.90;;;;;;6245623;22;20011;-91
2022/03/05 06:16:58;;;;;;;21.67;8.63;;;-2.20;99.90;;;;;;6221776;22;20038;-91
2022/03/05 06:19:24;;;;;;;18.98;9.75;;;-2.20;99.90;;;;;;6246566;22;20046;-91
2022/03/05 06:21:50;;;;;;;21.05;9.80;;;-2.20;99.90;;;;;;6219064;22;20021;-91
2022/03/05 06:24:16;;;;;;;20.02;9.75;;;-2.20;99.90;;;;;;6194068;22;20015;-91
2022/03/05 06:26:42;;;;;;;19.00;8.43;;;-2.20;99.90;;;;;;6220906;22;20094;-91
2022/03/05 06:29:08;;;;;;;19.60;9.73;;;-2.20;99.90;;;;;;6195731;22;20103;-91
2022/03/05 06:31:34;;;;;;;16.92;9.95;;;-2.20;99.90;;;;;;6254219;22;20015;-91
2022/03/05 06:33:59;;;;;;;19.25;8.75;;;-2.20;99.90;;;;;;6221990;22;20015;-92
2022/03/05 06:36:26;;;;;;;20.80;10.10;;;-2.20;99.90;;;;;;6246931;22;20015;-91
2022/03/05 06:38:52;;;;;;;17.38;9.15;;;-2.20;99.90;;;;;;6198237;22;20011;-90
2022/03/05 06:41:17;;;;;;;21.40;9.80;;;-2.20;99.90;;;;;;6222569;22;20049;-91
2022/03/05 06:43:43;;;;;;;21.15;10.10;;;-2.10;99.90;;;;;;6245130;22;20098;-92
2022/03/05 06:46:09;;;;;;;20.83;9.25;;;-2.10;99.90;;;;;;6196436;22;20067;-90
2022/03/05 06:48:35;;;;;;;18.42;8.85;;;-2.20;99.90;;;;;;6195621;22;20337;-91
2022/03/05 06:51:01;;;;;;;19.65;9.43;;;-2.10;99.90;;;;;;6220744;22;20488;-91
2022/03/05 06:53:27;;;;;;;18.92;9.00;;;-2.00;99.90;;;;;;6220346;22;20007;-92
2022/03/05 06:55:55;;;;;;;20.60;9.75;;;-2.00;99.90;;;;;;6244957;22;20277;-92
2022/03/05 06:58:21;;;;;;;21.23;9.68;;;-2.00;99.90;;;;;;6245383;22;20141;-91
2022/03/05 07:00:47;;;;;;;19.70;9.70;;;-1.90;99.90;;;;;;6195310;22;20064;-91
2022/03/05 07:03:13;;;;;;;17.33;9.55;;;-1.90;99.90;;;;;;6246465;22;20017;-91
2022/03/05 07:05:38;;;;;;;17.02;9.13;;;-1.80;99.90;;;;;;6220901;22;20386;-91
2022/03/05 07:08:05;;;;;;;18.80;9.35;;;-1.80;99.90;;;;;;6249450;22;20372;-91
2022/03/05 07:10:30;;;;;;;22.08;9.82;;;-1.80;99.90;;;;;;6245790;22;20042;-89
2022/03/05 07:12:56;;;;;;;20.55;9.95;;;-1.70;99.90;;;;;;6220599;22;20042;-91
2022/03/05 07:15:22;;;;;;;21.60;10.15;;;-1.70;99.90;;;;;;6195417;22;20011;-90
2022/03/05 07:17:49;;;;;;;20.15;9.75;;;-1.60;99.90;;;;;;6221720;22;20011;-91
2022/03/05 07:20:15;;;;;;;21.17;9.57;;;-1.60;99.90;;;;;;6220947;22;20015;-91
2022/03/05 07:22:42;;;;;;;21.63;9.55;;;-1.50;99.90;;;;;;6220900;22;20011;-91
2022/03/05 07:25:09;;;;;;;22.05;10.38;;;;;;;;;;6245227;22;20558;-90
2022/03/05 07:27:35;;;;;;;21.73;10.43;;;;;;;;;;6218914;22;20479;-90
2022/03/05 07:30:01;;;;;;;24.38;10.52;;;;;;;;;;6220366;22;20015;-91
2022/03/05 07:32:27;;;;;;;20.75;10.32;;;;;;;;;;6270927;22;20448;-90
2022/03/05 07:34:53;;;;;;;20.63;10.23;;;;;;;;;;6220917;22;20086;-90
2022/03/05 07:37:20;;;;;;;23.83;10.52;;;;;;;;;;6221228;22;20109;-91
2022/03/05 07:39:46;;;;;;;24.73;10.77;;;;;;;;;;6219593;22;20015;-90
2022/03/05 07:42:12;;;;;;;18.40;10.05;;;;;;;;;;6222921;22;20459;-90
2022/03/05 07:44:38;;;;;;;22.42;10.20;;;;;;;;;;6221046;22;20098;-91
2022/03/05 07:47:05;;;;;;;25.98;10.63;;;;;;;;;;6220252;22;20265;-90
2022/03/05 07:49:31;;;;;;;20.58;10.77;;;-1.50;99.90;;;;;;6222524;22;20057;-92
2022/03/05 07:51:57;;;;;;;22.98;10.80;;;-0.60;99.90;;;;;;6250036;22;20007;-92
2022/03/05 07:54:24;;;;;;;21.98;10.48;;;-0.60;99.90;;;;;;6223982;22;20022;-91
2022/03/05 07:56:50;;;;;;;23.48;11.25;;;-0.50;99.90;;;;;;6248913;22;20033;-92
2022/03/05 07:59:16;;;;;;;21.65;11.00;;;-0.50;99.90;;;;;;6224180;22;20015;-93
2022/03/05 08:01:42;;;;;;;23.35;10.98;;;-0.40;99.90;;;;;;6223966;22;20094;-93
2022/03/05 08:04:08;;;;;;;19.00;9.45;;;;;;;;;;6248499;22;20071;-91
2022/03/05 08:06:34;;;;;;;25.80;10.93;;;-0.20;99.90;;;;;;6248690;22;20015;-90
2022/03/05 08:09:00;;;;;;;25.38;11.07;;;;;;;;;;6223323;22;20015;-90
2022/03/05 08:11:26;;;;;;;22.48;11.50;;;-0.10;99.90;;;;;;6248116;22;20015;-89
2022/03/05 08:13:52;;;;;;;21.80;10.35;;;0.10;99.90;;;;;;6223132;22;20022;-87
2022/03/05 08:16:18;;;;;;;22.27;11.13;;;0.10;99.90;;;;;;6248008;22;20018;-89
2022/03/05 08:18:44;;;;;;;24.48;12.15;;;0.20;99.90;;;;;;6226814;22;20316;-89
2022/03/05 08:21:10;;;;;;;25.45;11.88;;;0.30;99.90;;;;;;6197115;22;20019;-88
2022/03/05 08:23:36;;;;;;;22.40;11.02;;;0.40;99.90;;;;;;6222886;22;20011;-89
2022/03/05 08:26:02;;;;;;;25.38;12.20;;;0.50;99.90;;;;;;6247361;22;20066;-89
2022/03/05 08:28:28;;;;;;;27.58;12.13;;;0.50;99.90;;;;;;6248415;22;20442;-90
2022/03/05 08:30:54;;;;;;;23.67;11.95;;;0.60;99.90;;;;;;6197385;22;20518;-89
2022/03/05 08:33:21;;;;;;;24.63;11.88;;;0.80;99.90;;;;;;6247985;22;20022;-92
2022/03/05 08:35:48;;;;;;;23.60;11.65;;;;;;;;;;6247950;22;20440;-88
2022/03/05 08:38:14;;;;;;;24.55;12.77;;;;;;;;;;6247670;22;20017;-91
2022/03/05 08:40:41;;;;;;;30.83;13.20;;;;;;;;;;6247854;22;20042;-94
2022/03/05 08:43:07;;;;;;;27.45;13.18;;;;;;;;;;6248293;22;20391;-90
2022/03/05 08:45:33;;;;;;;25.52;12.80;;;;;;;;;;6247494;22;20089;-91
2022/03/05 08:48:00;;;;;;;25.45;12.55;;;;;;;;;;6247140;22;20042;-90
2022/03/05 08:50:26;;;;;;;23.13;12.77;;;;;;;;;;6247742;22;20015;-90
2022/03/05 08:52:52;;;;;;;27.27;13.50;;;;;;;;;;6225688;22;20137;-90
2022/03/05 08:55:18;;;;;;;26.75;13.75;;;0.80;99.90;;;;;;6224082;22;20011;-88
2022/03/05 08:57:44;;;;;;;27.67;13.43;;;1.80;99.90;;;;;;6197239;22;20086;-88
2022/03/05 09:00:11;;;;;;;26.85;13.18;;;;;;;;;;6248599;22;20019;-91
2022/03/05 09:02:37;;;;;;;27.13;13.20;;;1.80;99.90;;;;;;6247940;22;20015;-89
2022/03/05 09:05:04;;;;;;;26.67;13.02;;;;;;;;;;6224029;22;20015;-89
2022/03/05 09:07:30;;;;;;;27.02;13.27;;;;;;;;;;6248702;22;20362;-91
2022/03/05 09:09:56;;;;;;;33.28;14.10;;;;;;;;;;6248385;22;20011;-92
2022/03/05 09:12:23;;;;;;;28.52;13.73;;;;;;;;;;6248702;22;20030;-92
2022/03/05 09:14:49;;;;;;;30.45;13.82;;;;;;;;;;6248454;22;20026;-92
2022/03/05 09:17:15;;;;;;;27.80;14.70;;;2.00;99.90;;;;;;6223233;22;20014;-93
2022/03/05 09:19:42;;;;;;;31.52;14.43;;;;;;;;;;6248749;22;20015;-89
2022/03/05 09:22:10;;;;;;;25.20;13.32;;;;;;;;;;6248301;22;20395;-88
2022/03/05 09:24:36;;;;;;;28.85;14.32;;;;;;;;;;6249147;22;20011;-90
2022/03/05 09:27:03;;;;;;;33.92;15.77;;;;;;;;;;6225297;22;20065;-90
2022/03/05 09:29:29;;;;;;;24.92;13.32;;;;;;;;;;6250207;22;20149;-90
2022/03/05 09:31:55;;;;;;;28.98;14.50;;;;;;;;;;6223262;22;20064;-90
2022/03/05 09:34:21;;;;;;;28.35;13.75;;;;;;;;;;6224655;22;20022;-90
2022/03/05 09:36:47;;;;;;;30.20;14.68;;;;;;;;;;6225241;22;20022;-89
2022/03/05 09:39:14;;;;;;;29.73;14.07;;;;;;;;;;6249335;22;20015;-88
2022/03/05 09:41:41;;;;;;;27.27;14.65;;;;;;;;;;6243371;22;20068;-87
2022/03/05 09:44:07;;;;;;;29.42;14.13;;;;;;;;;;6159963;23;20333;-88
2022/03/05 09:46:34;;;;;;;28.17;14.52;;;;;;;;;;6185937;23;20491;-87
2022/03/05 09:49:01;;;;;;;30.73;14.65;;;;;;;;;;6163264;23;20066;-87
2022/03/05 09:51:27;;;;;;;33.03;14.90;;;;;;;;;;6186064;23;20012;-87
2022/03/05 09:53:54;;;;;;;35.97;16.55;;;;;;;;;;6161218;23;20012;-87
2022/03/05 09:56:20;;;;;;;27.42;15.18;;;;;;;;;;6184428;22;20016;-87
2022/03/05 09:58:47;;;;;;;29.45;14.73;;;;;;;;;;6185191;23;20023;-87
2022/03/05 10:01:14;;;;;;;29.00;14.52;;;;;;;;;;6185625;23;20016;-88
2022/03/05 10:03:44;;;;;;;32.25;16.35;;;;;;;;;;6186117;23;20099;-88
2022/03/05 10:06:17;;;;;;;30.98;15.90;;;;;;;;;;6159967;22;20101;-88
2022/03/05 10:08:44;;;;;;;35.60;17.23;;;;;;;;;;6161662;23;20044;-87
2022/03/05 10:11:12;;;;;;;30.27;15.35;;;;;;;;;;6186640;23;20016;-88
2022/03/05 10:13:38;;;;;;;29.50;15.50;;;;;;;;;;6162604;23;20008;-88
2022/03/05 10:16:25;;;;;;;33.25;15.80;;;;;;;;;;6186496;22;20020;-86
2022/03/05 10:18:52;;;;;;;31.80;15.88;;;;;;;;;;6186691;23;20405;-87
2022/03/05 10:21:18;;;;;;;28.48;15.27;;;;;;;;;;6186251;23;20164;-88
2022/03/05 10:23:47;;;;;;;31.67;15.45;;;;;;;;;;6188103;23;20020;-87
2022/03/05 10:26:15;;;;;;;27.42;15.15;;;;;;;;;;6186400;22;20012;-87
2022/03/05 10:28:42;;;;;;;29.00;15.55;;;;;;;;;;6185812;23;20058;-87
2022/03/05 10:31:09;;;;;;;33.03;16.17;;;;;;;;;;6185270;23;20391;-87
2022/03/05 10:33:43;;;;;;;32.75;15.70;;;;;;;;;;6185793;23;20466;-87
2022/03/05 10:36:18;;;;;;;32.22;15.55;;;;;;;;;;6185199;22;20019;-88
2022/03/05 10:38:44;;;;;;;26.85;15.55;;;;;;;;;;6186050;23;20020;-88
2022/03/05 10:41:10;;;;;;;34.17;16.10;;;;;;;;;;6184733;23;20024;-88
2022/03/05 10:44:15;;;;;;;35.75;16.13;;;;;;;;;;6160458;23;20020;-88
2022/03/05 10:46:57;;;;;;;30.08;15.57;;;;;;;;;;6151003;23;20012;-88
2022/03/05 10:49:42;;;;;;;29.92;16.27;;;;;;;;;;6183939;23;20012;-88
2022/03/05 10:52:09;;;;;;;28.73;15.27;;;;;;;;;;6183835;23;20492;-87
2022/03/05 10:54:40;;;;;;;32.55;16.48;;;;;;;;;;6184183;23;20016;-88
2022/03/05 10:57:22;;;;;;;36.53;16.48;;;2.40;99.90;;;;;;6184216;23;20008;-88
2022/03/05 11:00:22;;;;;;;32.75;16.75;;;5.30;99.90;;;;;;6159935;23;20016;-88
2022/03/05 11:03:08;;;;;;;;;;;;;;;;;;;;;
2022/03/05 11:05:41;;;;;;;27.98;15.65;;;5.40;99.90;;;;;;6184728;23;20016;-88
2022/03/05 11:08:09;;;;;;;33.05;16.13;;;5.50;99.90;;;;;;6181453;23;20020;-87
2022/03/05 11:10:58;;;;;;;;;;;;;;;;;;;;;
2022/03/05 11:13:37;;;;;;;30.55;15.90;;;5.40;99.90;;;;;;6211342;23;20019;-87
2022/03/05 11:16:11;;;;;;;28.52;16.02;;;5.40;99.90;;;;;;6162778;22;20020;-88
2022/03/05 11:18:41;;;;;;;29.02;16.30;;;5.50;99.90;;;;;;6181862;23;20027;-88
2022/03/05 11:21:10;;;;;;;30.92;15.93;;;5.50;99.90;;;;;;6158335;23;20368;-87
2022/03/05 11:23:38;;;;;;;32.40;15.95;;;5.60;99.90;;;;;;6162940;23;20482;-88
2022/03/05 11:26:07;;;;;;;28.00;15.68;;;5.70;99.90;;;;;;6183003;22;20023;-87
2022/03/05 11:28:56;;;;;;;32.13;16.77;;;5.70;99.90;;;;;;6184454;23;20065;-88
2022/03/05 11:31:35;;;;;;;33.80;15.95;;;5.80;99.90;;;;;;6182847;23;20018;-88
2022/03/05 11:34:13;;;;;;;29.90;16.10;;;5.90;99.90;;;;;;6160835;23;20012;-87
2022/03/05 11:36:40;;;;;;;32.58;16.58;;;5.90;99.90;;;;;;6183082;23;20019;-87
2022/03/05 11:39:31;;;;;;;31.02;16.05;;;5.90;99.90;;;;;;6183004;23;20348;-88
2022/03/05 11:42:03;;;;;;;31.00;15.20;;;6.00;99.90;;;;;;6183305;23;20444;-90
2022/03/05 11:56:20;;;;;;;32.38;16.52;;;6.40;99.90;;;;;;6236210;23;20053;-87
2022/03/05 11:58:59;;;;;;;33.10;17.08;;;6.60;99.90;;;;;;6182324;23;20020;-87
2022/03/05 12:01:44;;;;;;;33.15;17.52;;;6.80;99.90;;;;;;6179859;23;20027;-87
2022/03/05 12:04:43;;;;;;;34.45;17.17;;;6.90;99.90;;;;;;6159283;23;20012;-88
2022/03/05 12:07:14;;;;;;;33.13;16.17;;;7.00;99.90;;;;;;6166913;23;20055;-86
2022/03/05 12:09:43;;;;;;;28.58;16.30;;;7.30;99.90;;;;;;6158682;23;20020;-87
2022/03/05 12:12:12;;;;;;;33.30;17.40;;;7.50;99.90;;;;;;6183649;23;20200;-86
2022/03/05 12:15:06;;;;;;;30.00;15.50;;;7.70;99.90;;;;;;6184197;23;20088;-88
2022/03/05 12:17:44;;;;;;;31.58;16.80;;;8.00;98.70;;;;;;6183216;23;20044;-87
2022/03/05 12:20:14;;;;;;;30.48;17.40;;;8.20;97.60;;;;;;6207412;23;20051;-89
2022/03/05 12:22:55;;;;;;;29.08;16.50;;;8.20;98.30;;;;;;6184880;23;20026;-89
2022/03/05 12:28:26;;;;;;;33.53;17.30;;;8.20;94.00;;;;;;6200534;23;20036;-87
2022/03/05 12:30:58;;;;;;;33.22;16.80;;;8.20;92.90;;;;;;6154839;23;20020;-87
2022/03/05 12:33:24;;;;;;;31.13;17.10;;;8.20;91.10;;;;;;6181014;23;20019;-88
2022/03/05 12:35:50;;;;;;;31.85;17.23;;;8.20;90.40;;;;;;6179076;23;20055;-87
2022/03/05 12:38:18;;;;;;;30.73;16.70;;;8.30;90.00;;;;;;6180395;23;20432;-86
2022/03/05 12:40:44;;;;;;;36.42;18.42;;;8.50;87.40;;;;;;6183911;23;20016;-88
2022/03/05 12:43:10;;;;;;;32.78;18.38;;;8.60;86.50;;;;;;6160409;23;20016;-85
2022/03/05 12:45:41;;;;;;;32.20;17.63;;;8.80;87.70;;;;;;6181262;23;20213;-88
2022/03/05 12:48:15;;;;;;;34.60;18.08;;;9.00;86.50;;;;;;6182136;23;20012;-88
2022/03/05 12:50:47;;;;;;;31.63;17.23;;;9.20;81.40;;;;;;6183262;23;20031;-87
2022/03/05 12:53:20;;;;;;;33.25;17.77;;;9.40;85.00;;;;;;6182598;23;20012;-87
2022/03/05 12:55:55;;;;;;;32.78;17.77;;;9.50;84.20;;;;;;6180689;23;20016;-88
2022/03/05 12:58:22;;;;;;;29.25;17.40;;;9.40;81.60;;;;;;6156955;23;20012;-87
2022/03/05 13:00:56;;;;;;;34.33;18.52;;;9.30;80.20;;;;;;6180724;23;20027;-88
2022/03/05 13:03:23;;;;;;;34.20;18.58;;;9.10;78.00;;;;;;6179253;23;20064;-88
2022/03/05 13:05:54;;;;;;;32.78;18.13;;;8.90;78.50;;;;;;6155896;23;20588;-87
2022/03/05 13:08:26;;;;;;;32.67;18.65;;;8.90;78.30;;;;;;6180502;23;20023;-88
2022/03/05 13:11:13;;;;;;;32.67;17.90;;;8.80;77.70;;;;;;6181446;23;20016;-88
2022/03/05 13:14:17;;;;;;;33.45;18.38;;;8.70;76.20;;;;;;6181841;23;20077;-89
2022/03/05 13:16:59;;;;;;;33.10;17.98;;;8.40;76.10;;;;;;6215888;23;20143;-87
2022/03/05 13:23:20;;;;;;;37.13;19.45;;;8.40;78.70;;;;;;6103848;23;20253;-87